Flight Track Log - Related Links

Times and Time Zones

All times are in EDT time to prevent confusion due to time zone crossing. See the N59CW flight status page for this flight to view local times or setup timezone preferences in your user account.

Time Position Orientation Groundspeed Altitude Reporting Facility
EDT Latitude Longitude Course Direction KTS MPH feet Rate Location/Type
Sun 02:19:00 PM 31.4573 -84.1716 166° South  Level FlightAware Approximate
Sun 02:20:00 PM 31.4181 -84.1601 166° South  Level FlightAware Approximate
Sun 02:21:00 PM 31.3747 -84.1500 180° South  Level FlightAware Approximate
Sun 02:23:26 PM 31.5167 -84.1939 180° South 145 167 1,000  Level Jacksonville Center
Sun 02:24:26 PM 31.4917 -84.1961 184° South 118 136 1,700 750 Climbing Jacksonville Center
Sun 02:25:26 PM 31.4686 -84.1981 184° South 101 116 2,500 750 Climbing Jacksonville Center
Sun 02:26:26 PM 31.4458 -84.1881 159° South 91 105 3,200 650 Climbing Jacksonville Center
Sun 02:27:26 PM 31.4250 -84.1756 153° Southeast 86 99 3,800 850 Climbing Jacksonville Center
Sun 02:28:26 PM 31.3981 -84.1703 171° South 86 99 4,900 700 Climbing Jacksonville Center
Sun 02:29:26 PM 31.3753 -84.1581 155° Southeast 91 105 5,200 157 Climbing Jacksonville Center
Sun 02:30:21 PM 31.3417 -84.1575 179° South 123 142 5,200 90 Level Jacksonville Center
Sun 02:30:33 PM 31.3356 -84.1550 161° South 123 142 5,300 -82 Climbing Jacksonville Center
Sun 02:31:34 PM 31.3022 -84.1375 156° South 127 146 5,100 -53 Descending Jacksonville Center
Sun 02:32:26 PM 31.2794 -84.1203 147° Southeast 121 139 5,200 54 Climbing Jacksonville Center
Sun 02:33:26 PM 31.2483 -84.1053 158° South 127 146 5,200  Level Jacksonville Center
Sun 02:34:26 PM 31.2150 -84.0903 159° South 127 146 5,200 -86 Level Jacksonville Center
Sun 02:34:36 PM 31.2067 -84.0875 164° South 125 144 5,100 -100 Descending Jacksonville Center
Sun 02:35:26 PM 31.1839 -84.0753 155° Southeast 127 146 5,100  Level Jacksonville Center
Sun 02:35:36 PM 31.1756 -84.0703 153° Southeast 125 144 5,100  Level Jacksonville Center
Sun 02:36:26 PM 31.1528 -84.0603 159° South 127 146 5,100  Level Jacksonville Center
Sun 02:36:37 PM 31.1422 -84.0553 158° South 124 143 5,100 100 Level Jacksonville Center
Sun 02:37:26 PM 31.1217 -84.0428 152° Southeast 127 146 5,200 100 Climbing Jacksonville Center
Sun 02:37:37 PM 31.1153 -84.0381 148° Southeast 119 137 5,200 -100 Level Jacksonville Center
Sun 02:38:26 PM 31.0883 -84.0328 170° South 127 146 5,100 -98 Descending Jacksonville Center
Sun 02:38:38 PM 31.0778 -84.0278 158° South 125 144 5,100  Level Jacksonville Center
Sun 02:39:26 PM 31.0569 -84.0178 158° South 127 146 5,100  Level Jacksonville Center
Sun 02:39:39 PM 31.0444 -84.0128 161° South 125 144 5,100 82 Level Jacksonville Center
Sun 02:40:39 PM 31.0133 -83.9956 155° Southeast 124 143 5,200 50 Climbing Jacksonville Center
Sun 02:41:40 PM 30.9844 -83.9783 153° Southeast 122 140 5,200  Level Jacksonville Center
Sun 02:55:02 PM 30.5578 -83.7853 148° Southeast 121 139 5,200 -14 Level Jacksonville Center
Sun 02:56:00 PM 30.5278 -83.7506 148° Southeast  Level FlightAware Approximate
Sun 02:56:03 PM 30.5244 -83.7631 150° Southeast 127 146 5,000  Level Jacksonville Center
Sun 02:57:00 PM 30.4984 -83.7292 148° Southeast  Level FlightAware Approximate
Sun 02:57:02 PM 30.4933 -83.7508 161° South 122 140 5,100  Level Jacksonville Center
Sun 02:58:00 PM 30.4689 -83.7079 148° Southeast  Level FlightAware Approximate
Sun 02:58:02 PM 30.4600 -83.7289 150° Southeast 132 152 5,200  Level Jacksonville Center
Sun 02:59:00 PM 30.4395 -83.6867 148° Southeast  Level FlightAware Approximate
Sun 02:59:02 PM 30.4353 -83.7044 140° Southeast 120 138 5,100  Level Jacksonville Center
Sun 03:00:00 PM 30.4100 -83.6654 148° Southeast  Level FlightAware Approximate
Sun 03:00:02 PM 30.4144 -83.6803 135° Southeast 120 138 5,100  Level Jacksonville Center
Sun 03:01:02 PM 30.3875 -83.6608 148° Southeast 125 144 5,000  Descending Jacksonville Center
Sun 03:02:03 PM 30.3561 -83.6364 146° Southeast 130 150 5,100 50 Climbing Jacksonville Center
Sun 03:03:02 PM 30.3272 -83.6144 147° Southeast 130 150 5,100  Level Jacksonville Center
Sun 03:04:02 PM 30.2981 -83.5928 147° Southeast 124 143 5,100 100 Level Jacksonville Center
Sun 03:05:02 PM 30.2753 -83.5708 140° Southeast 124 143 5,300 500 Climbing Jacksonville Center
Sun 03:06:02 PM 30.2522 -83.5467 138° Southeast 119 137 6,100 750 Climbing Jacksonville Center
Sun 03:07:02 PM 30.2314 -83.5319 149° Southeast 112 129 6,800 545 Climbing Jacksonville Center
Sun 03:08:03 PM 30.2086 -83.5200 156° South 100 115 7,200 200 Climbing Jacksonville Center
Sun 03:09:02 PM 30.1817 -83.4958 142° Southeast 105 121 7,200  Level Jacksonville Center
Sun 03:10:02 PM 30.1544 -83.4739 145° Southeast 110 127 7,200  Level Jacksonville Center
Sun 03:11:02 PM 30.1253 -83.4569 153° Southeast 115 132 7,200 -100 Level Jacksonville Center
Sun 03:12:02 PM 30.1006 -83.4353 143° Southeast 120 138 7,000 -50 Descending Jacksonville Center
Sun 03:13:02 PM 30.0756 -83.4133 143° Southeast 120 138 7,100 99 Climbing Jacksonville Center
Sun 03:14:03 PM 30.0506 -83.3869 138° Southeast 125 144 7,200 50 Climbing Jacksonville Center
Sun 03:15:02 PM 30.0233 -83.3675 148° Southeast 120 138 7,200  Level Jacksonville Center
Sun 03:16:02 PM 29.9900 -83.3553 162° South 120 138 7,200  Level Jacksonville Center
Sun 03:17:02 PM 29.9650 -83.3336 143° Southeast 114 131 7,200  Level Jacksonville Center
Sun 03:18:02 PM 29.9403 -83.3072 137° Southeast 114 131 7,200 -50 Level Jacksonville Center
Sun 03:19:02 PM 29.9131 -83.2953 159° South 114 131 7,100 -50 Descending Jacksonville Center
Sun 03:20:03 PM 29.8881 -83.2806 153° Southeast 114 131 7,100 50 Level Jacksonville Center
Sun 03:21:03 PM 29.8694 -83.2542 129° Southeast 109 125 7,200 50 Climbing Jacksonville Center
Sun 03:22:03 PM 29.8444 -83.2325 143° Southeast 109 125 7,200  Level Jacksonville Center
Sun 03:23:03 PM 29.8172 -83.2133 149° Southeast 109 125 7,200  Level Jacksonville Center
Sun 03:24:02 PM 29.7922 -83.1942 146° Southeast 109 125 7,200  Level Jacksonville Center
Sun 03:25:02 PM 29.7653 -83.1700 142° Southeast 114 131 7,200  Level Jacksonville Center
Sun 03:26:02 PM 29.7381 -83.1508 149° Southeast 120 138 7,200 -50 Level Jacksonville Center
Sun 03:27:02 PM 29.7089 -83.1317 150° Southeast 120 138 7,100  Descending Jacksonville Center
Sun 03:28:02 PM 29.6797 -83.1125 150° Southeast 120 138 7,200 50 Climbing Jacksonville Center
Sun 03:29:03 PM 29.6547 -83.0908 143° Southeast 120 138 7,200 -50 Level Jacksonville Center
Sun 03:30:02 PM 29.6233 -83.0717 152° Southeast 120 138 7,100  Descending Jacksonville Center
Sun 03:30:52 PM 29.5961 -83.0525 149° Southeast 123 142 7,200 100 Climbing Jacksonville Center
Sun 03:31:02 PM 29.5961 -83.0503 90° East 120 138 7,200  Level Jacksonville Center
Sun 03:31:47 PM 29.5711 -83.0333 149° Southeast 119 137 7,200  Level Jacksonville Center
Sun 03:32:02 PM 29.5692 -83.0286 115° Southeast 120 138 7,200  Level Jacksonville Center
Sun 03:32:54 PM 29.5358 -83.0167 163° South 129 148 7,200 -53 Level Jacksonville Center
Sun 03:33:55 PM 29.5067 -82.9928 145° Southeast 125 144 7,100  Descending Jacksonville Center
Sun 03:34:56 PM 29.4794 -82.9714 146° Southeast 121 139 7,200  Climbing Jacksonville Center
Sun 03:35:57 PM 29.4481 -82.9497 149° Southeast 123 142 7,100 -49 Descending Jacksonville Center
Sun 03:36:58 PM 29.4167 -82.9331 155° Southeast 122 140 7,100  Level Jacksonville Center
Sun 03:37:59 PM 29.3875 -82.9117 147° Southeast 116 133 7,100  Level Jacksonville Center
Sun 03:39:03 PM 29.3625 -82.8950 150° Southeast 120 138 7,100  Level Jacksonville Center
Sun 03:40:01 PM 29.3292 -82.8758 153° Southeast 121 139 7,100  Level Jacksonville Center
Sun 03:41:03 PM 29.2978 -82.8569 152° Southeast 126 145 7,100 -293 Level Jacksonville Center
Sun 03:42:04 PM 29.2686 -82.8283 139° Southeast 126 145 6,500 -672 Descending Jacksonville Center
Sun 03:42:59 PM 29.2414 -82.8117 152° Southeast 125 144 5,800 -569 Descending Jacksonville Center
Sun 03:44:00 PM 29.2081 -82.7950 156° South 123 142 5,400 -328 Descending Jacksonville Center
Sun 03:45:07 PM 29.1767 -82.7736 149° Southeast 125 144 5,100 -141 Descending Jacksonville Center
Sun 03:46:08 PM 29.1475 -82.7569 153° Southeast 116 133 5,100 49 Level Jacksonville Center
Sun 03:47:09 PM 29.1183 -82.7381 150° Southeast 112 129 5,200  Climbing Jacksonville Center
Sun 03:48:10 PM 29.0847 -82.7311 170° South 124 143 5,100 -49 Descending Jacksonville Center
Sun 03:49:11 PM 29.0536 -82.7217 165° South 123 142 5,100 49 Level Jacksonville Center
Sun 03:50:12 PM 29.0222 -82.7144 169° South 114 131 5,200 49 Climbing Jacksonville Center
Sun 03:51:13 PM 28.9889 -82.7097 173° South 120 138 5,200  Level Jacksonville Center
Sun 03:52:14 PM 28.9492 -82.7028 171° South 130 150 5,200 -49 Level Jacksonville Center
Sun 03:53:15 PM 28.9156 -82.6933 166° South 122 140 5,100 -49 Descending Jacksonville Center
Sun 03:54:16 PM 28.8844 -82.6839 165° South 120 138 5,100  Level Jacksonville Center
Sun 03:55:17 PM 28.8508 -82.6817 177° South 122 140 5,100 -31 Level Jacksonville Center
Sun 03:57:29 PM 28.7833 -82.6667 169° South 124 143 5,000 -31 Descending Tampa TRACON
Sun 03:58:29 PM 28.7500 -82.6667 180° South 121 139 5,000  Level Tampa TRACON
Sun 03:59:29 PM 28.7167 -82.6500 156° South 122 140 5,000  Level Tampa TRACON
Sun 04:00:29 PM 28.6833 -82.6500 180° South 132 152 5,000 -150 Level Tampa TRACON
Sun 04:01:29 PM 28.6500 -82.6667 204° Southwest 125 144 4,700 -450 Descending Tampa TRACON
Sun 04:02:29 PM 28.6000 -82.6667 180° South 130 150 4,100 -333 Descending Tampa TRACON
Sun 04:03:35 PM 28.5667 -82.6833 204° Southwest 132 152 4,000  Descending Tampa TRACON
Sun 04:04:29 PM 28.5333 -82.6833 180° South 127 146 4,100  Climbing Tampa TRACON
Sun 04:05:35 PM 28.5000 -82.7000 204° Southwest 129 148 4,000 -95 Descending Tampa TRACON
Sun 04:06:35 PM 28.4667 -82.7167 204° Southwest 127 146 3,900 -250 Descending Tampa TRACON
Sun 04:07:35 PM 28.4333 -82.7333 204° Southwest 129 148 3,500 -450 Descending Tampa TRACON
Sun 04:08:35 PM 28.4000 -82.7333 180° South 137 158 3,000 -200 Descending Tampa TRACON
Sun 04:09:35 PM 28.3667 -82.7500 204° Southwest 126 145 3,100 52 Climbing Tampa TRACON
Sun 04:10:30 PM 28.3333 -82.7500 180° South 127 146 3,100 -50 Level Tampa TRACON
Sun 04:11:36 PM 28.3000 -82.7667 204° Southwest 129 148 3,000 -45 Descending Tampa TRACON
Sun 04:12:42 PM 28.2500 -82.7833 196° South 126 145 3,000 50 Level Tampa TRACON
Sun 04:13:36 PM 28.2167 -82.7833 180° South 124 143 3,100 53 Climbing Tampa TRACON
Sun 04:14:36 PM 28.1833 -82.8000 204° Southwest 123 142 3,100 -50 Level Tampa TRACON
Sun 04:15:36 PM 28.1500 -82.7833 156° South 127 146 3,000  Descending Tampa TRACON
Sun 04:16:42 PM 28.1167 -82.7833 180° South 121 139 3,100 -48 Climbing Tampa TRACON
Sun 04:17:42 PM 28.0833 -82.7833 180° South 129 148 2,900 -316 Descending Tampa TRACON
Sun 04:18:36 PM 28.0500 -82.8000 204° Southwest 141 162 2,500 -450 Descending Tampa TRACON
Sun 04:19:42 PM 28.0167 -82.8000 180° South 128 147 2,000 -333 Descending Tampa TRACON
Sun 04:20:42 PM 27.9833 -82.7833 156° South 114 131 1,800 -446 Descending Tampa TRACON
Sun 04:21:43 PM 27.9500 -82.7667 156° South 119 137 1,100 -470 Descending Tampa TRACON
Sun 04:22:37 PM 27.9167 -82.7667 180° South 102 117 900 -211 Descending Tampa TRACON
Sun 04:23:37 PM 27.9167 -82.7333 90° East 78 90 700 -200 Descending Tampa TRACON
Sun 04:24:37 PM 27.9167 -82.7167 90° East 72 83 500 -200 Descending Tampa TRACON
Sun 04:29:00 PM 27.9100 -82.6875 190° South  Level Estimated
Sun 04:36:00 PM 27.9100 -82.6875 190° South  Level Estimated
Sun 04:37:00 PM 27.9100 -82.6875 160° South  Level Estimated

Login

Don't have an account? Register now (free) for customized features, flight alerts, and more!